sensor_id;sensor_type;location;lat;lon;timestamp;P1;durP1;ratioP1;P2;durP2;ratioP2
57327;SDS011;43162;51.040;18.244;2024-01-27T00:01:33;13.00;;;2.50;;
57327;SDS011;43162;51.040;18.244;2024-01-27T00:03:58;6.10;;;1.50;;
57327;SDS011;43162;51.040;18.244;2024-01-27T00:06:24;5.00;;;1.00;;
57327;SDS011;43162;51.040;18.244;2024-01-27T00:08:50;4.30;;;1.00;;
57327;SDS011;43162;51.040;18.244;2024-01-27T00:11:15;11.00;;;1.50;;
57327;SDS011;43162;51.040;18.244;2024-01-27T00:13:41;4.10;;;0.90;;
57327;SDS011;43162;51.040;18.244;2024-01-27T00:16:07;14.00;;;1.60;;
57327;SDS011;43162;51.040;18.244;2024-01-27T00:18:35;7.70;;;1.90;;
57327;SDS011;43162;51.040;18.244;2024-01-27T00:21:01;7.70;;;0.90;;
57327;SDS011;43162;51.040;18.244;2024-01-27T00:23:27;9.70;;;1.10;;
57327;SDS011;43162;51.040;18.244;2024-01-27T00:25:52;4.50;;;1.10;;
57327;SDS011;43162;51.040;18.244;2024-01-27T00:28:18;10.90;;;1.70;;
57327;SDS011;43162;51.040;18.244;2024-01-27T00:30:43;7.30;;;1.70;;
57327;SDS011;43162;51.040;18.244;2024-01-27T00:33:09;8.50;;;1.20;;
57327;SDS011;43162;51.040;18.244;2024-01-27T00:35:34;10.00;;;1.80;;
57327;SDS011;43162;51.040;18.244;2024-01-27T00:38:00;7.10;;;1.40;;
57327;SDS011;43162;51.040;18.244;2024-01-27T00:40:25;3.90;;;1.10;;
57327;SDS011;43162;51.040;18.244;2024-01-27T00:42:51;2.20;;;0.60;;
57327;SDS011;43162;51.040;18.244;2024-01-27T00:45:16;5.40;;;0.50;;
57327;SDS011;43162;51.040;18.244;2024-01-27T00:47:42;11.60;;;1.10;;
57327;SDS011;43162;51.040;18.244;2024-01-27T00:50:07;11.70;;;1.30;;
57327;SDS011;43162;51.040;18.244;2024-01-27T00:52:35;2.50;;;0.60;;
57327;SDS011;43162;51.040;18.244;2024-01-27T00:55:00;5.90;;;0.80;;
57327;SDS011;43162;51.040;18.244;2024-01-27T00:57:26;12.00;;;1.70;;
57327;SDS011;43162;51.040;18.244;2024-01-27T00:59:52;8.20;;;0.80;;
57327;SDS011;43162;51.040;18.244;2024-01-27T01:02:17;4.80;;;0.80;;
57327;SDS011;43162;51.040;18.244;2024-01-27T01:04:43;2.70;;;0.80;;
57327;SDS011;43162;51.040;18.244;2024-01-27T01:07:10;13.30;;;2.00;;
57327;SDS011;43162;51.040;18.244;2024-01-27T01:09:35;6.30;;;1.60;;
57327;SDS011;43162;51.040;18.244;2024-01-27T01:12:01;7.60;;;1.30;;
57327;SDS011;43162;51.040;18.244;2024-01-27T01:14:27;6.10;;;1.10;;
57327;SDS011;43162;51.040;18.244;2024-01-27T01:16:53;8.40;;;1.20;;
57327;SDS011;43162;51.040;18.244;2024-01-27T01:19:18;13.90;;;1.60;;
57327;SDS011;43162;51.040;18.244;2024-01-27T01:21:44;16.90;;;2.40;;
57327;SDS011;43162;51.040;18.244;2024-01-27T01:24:10;13.10;;;1.60;;
57327;SDS011;43162;51.040;18.244;2024-01-27T01:26:35;5.70;;;1.20;;
57327;SDS011;43162;51.040;18.244;2024-01-27T01:29:01;4.80;;;1.30;;
57327;SDS011;43162;51.040;18.244;2024-01-27T01:31:26;6.60;;;1.20;;
57327;SDS011;43162;51.040;18.244;2024-01-27T01:33:52;7.20;;;0.80;;
57327;SDS011;43162;51.040;18.244;2024-01-27T01:36:18;8.90;;;0.80;;
57327;SDS011;43162;51.040;18.244;2024-01-27T01:38:43;10.70;;;1.70;;
57327;SDS011;43162;51.040;18.244;2024-01-27T01:41:09;11.80;;;1.20;;
57327;SDS011;43162;51.040;18.244;2024-01-27T01:43:34;6.20;;;0.60;;
57327;SDS011;43162;51.040;18.244;2024-01-27T01:46:00;9.30;;;1.00;;
57327;SDS011;43162;51.040;18.244;2024-01-27T01:48:26;8.50;;;1.20;;
57327;SDS011;43162;51.040;18.244;2024-01-27T01:50:51;8.70;;;1.30;;
57327;SDS011;43162;51.040;18.244;2024-01-27T01:53:17;8.80;;;1.40;;
57327;SDS011;43162;51.040;18.244;2024-01-27T01:55:43;7.40;;;1.50;;
57327;SDS011;43162;51.040;18.244;2024-01-27T01:58:09;4.20;;;0.90;;
57327;SDS011;43162;51.040;18.244;2024-01-27T02:00:34;10.30;;;1.40;;
57327;SDS011;43162;51.040;18.244;2024-01-27T02:03:00;6.10;;;1.00;;
57327;SDS011;43162;51.040;18.244;2024-01-27T02:05:25;4.80;;;0.90;;
57327;SDS011;43162;51.040;18.244;2024-01-27T02:07:51;8.00;;;0.70;;
57327;SDS011;43162;51.040;18.244;2024-01-27T02:10:17;7.30;;;1.40;;
57327;SDS011;43162;51.040;18.244;2024-01-27T02:12:43;6.00;;;0.70;;
57327;SDS011;43162;51.040;18.244;2024-01-27T02:15:12;4.50;;;1.30;;
57327;SDS011;43162;51.040;18.244;2024-01-27T02:17:38;2.00;;;0.50;;
57327;SDS011;43162;51.040;18.244;2024-01-27T02:20:05;3.20;;;0.60;;
57327;SDS011;43162;51.040;18.244;2024-01-27T02:22:50;9.50;;;1.10;;
57327;SDS011;43162;51.040;18.244;2024-01-27T02:25:16;5.60;;;1.50;;
57327;SDS011;43162;51.040;18.244;2024-01-27T02:27:41;8.40;;;0.70;;
57327;SDS011;43162;51.040;18.244;2024-01-27T02:30:07;2.70;;;0.90;;
57327;SDS011;43162;51.040;18.244;2024-01-27T02:32:33;1.30;;;0.40;;
57327;SDS011;43162;51.040;18.244;2024-01-27T02:34:59;5.70;;;0.80;;
57327;SDS011;43162;51.040;18.244;2024-01-27T02:37:24;10.10;;;1.20;;
57327;SDS011;43162;51.040;18.244;2024-01-27T02:39:50;10.50;;;1.30;;
57327;SDS011;43162;51.040;18.244;2024-01-27T02:42:15;6.10;;;0.90;;
57327;SDS011;43162;51.040;18.244;2024-01-27T02:44:41;9.80;;;1.20;;
57327;SDS011;43162;51.040;18.244;2024-01-27T02:47:06;4.10;;;0.80;;
57327;SDS011;43162;51.040;18.244;2024-01-27T02:49:32;6.30;;;1.00;;
57327;SDS011;43162;51.040;18.244;2024-01-27T02:51:58;11.20;;;0.80;;
57327;SDS011;43162;51.040;18.244;2024-01-27T02:54:23;5.50;;;0.70;;
57327;SDS011;43162;51.040;18.244;2024-01-27T02:56:49;7.20;;;1.70;;
57327;SDS011;43162;51.040;18.244;2024-01-27T02:59:14;10.80;;;1.20;;
57327;SDS011;43162;51.040;18.244;2024-01-27T03:01:40;9.80;;;0.80;;
57327;SDS011;43162;51.040;18.244;2024-01-27T03:04:05;12.50;;;1.30;;
57327;SDS011;43162;51.040;18.244;2024-01-27T03:06:31;14.70;;;1.40;;
57327;SDS011;43162;51.040;18.244;2024-01-27T03:08:56;10.10;;;1.30;;
57327;SDS011;43162;51.040;18.244;2024-01-27T03:11:22;5.50;;;1.10;;
57327;SDS011;43162;51.040;18.244;2024-01-27T03:13:47;12.80;;;1.90;;
57327;SDS011;43162;51.040;18.244;2024-01-27T03:16:13;10.60;;;1.30;;
57327;SDS011;43162;51.040;18.244;2024-01-27T03:18:38;2.80;;;0.90;;
57327;SDS011;43162;51.040;18.244;2024-01-27T03:21:05;6.10;;;0.90;;
57327;SDS011;43162;51.040;18.244;2024-01-27T03:23:32;6.80;;;0.80;;
57327;SDS011;43162;51.040;18.244;2024-01-27T03:25:57;16.40;;;2.40;;
57327;SDS011;43162;51.040;18.244;2024-01-27T03:28:23;11.80;;;1.50;;
57327;SDS011;43162;51.040;18.244;2024-01-27T03:30:48;19.70;;;1.80;;
57327;SDS011;43162;51.040;18.244;2024-01-27T03:33:14;13.80;;;1.60;;
57327;SDS011;43162;51.040;18.244;2024-01-27T03:35:39;6.10;;;1.60;;
57327;SDS011;43162;51.040;18.244;2024-01-27T03:38:05;4.30;;;1.30;;
57327;SDS011;43162;51.040;18.244;2024-01-27T03:40:31;6.90;;;0.60;;
57327;SDS011;43162;51.040;18.244;2024-01-27T03:42:57;11.50;;;1.30;;
57327;SDS011;43162;51.040;18.244;2024-01-27T03:45:22;6.10;;;0.90;;
57327;SDS011;43162;51.040;18.244;2024-01-27T03:47:48;12.30;;;2.90;;
57327;SDS011;43162;51.040;18.244;2024-01-27T03:50:13;11.50;;;1.20;;
57327;SDS011;43162;51.040;18.244;2024-01-27T03:52:39;5.10;;;0.90;;
57327;SDS011;43162;51.040;18.244;2024-01-27T03:55:05;11.60;;;1.70;;
57327;SDS011;43162;51.040;18.244;2024-01-27T03:57:31;8.80;;;1.20;;
57327;SDS011;43162;51.040;18.244;2024-01-27T03:59:57;9.60;;;0.90;;
57327;SDS011;43162;51.040;18.244;2024-01-27T04:02:22;6.70;;;1.50;;
57327;SDS011;43162;51.040;18.244;2024-01-27T04:04:48;6.60;;;0.90;;
57327;SDS011;43162;51.040;18.244;2024-01-27T04:07:13;10.20;;;1.50;;
57327;SDS011;43162;51.040;18.244;2024-01-27T04:09:39;22.90;;;1.10;;
57327;SDS011;43162;51.040;18.244;2024-01-27T04:12:04;9.20;;;2.10;;
57327;SDS011;43162;51.040;18.244;2024-01-27T04:14:30;16.90;;;2.10;;
57327;SDS011;43162;51.040;18.244;2024-01-27T04:16:56;6.70;;;1.00;;
57327;SDS011;43162;51.040;18.244;2024-01-27T04:19:21;12.60;;;1.70;;
57327;SDS011;43162;51.040;18.244;2024-01-27T04:21:47;6.40;;;1.60;;
57327;SDS011;43162;51.040;18.244;2024-01-27T04:24:12;5.90;;;1.10;;
57327;SDS011;43162;51.040;18.244;2024-01-27T04:26:38;14.30;;;1.60;;
57327;SDS011;43162;51.040;18.244;2024-01-27T04:29:03;7.90;;;1.50;;
57327;SDS011;43162;51.040;18.244;2024-01-27T04:31:29;9.50;;;1.30;;
57327;SDS011;43162;51.040;18.244;2024-01-27T04:33:56;8.30;;;1.60;;
57327;SDS011;43162;51.040;18.244;2024-01-27T04:36:27;8.80;;;1.50;;
57327;SDS011;43162;51.040;18.244;2024-01-27T04:38:54;10.00;;;2.20;;
57327;SDS011;43162;51.040;18.244;2024-01-27T04:41:20;11.00;;;1.50;;
57327;SDS011;43162;51.040;18.244;2024-01-27T04:43:45;6.80;;;1.60;;
57327;SDS011;43162;51.040;18.244;2024-01-27T04:46:11;11.40;;;1.60;;
57327;SDS011;43162;51.040;18.244;2024-01-27T04:48:36;4.90;;;1.10;;
57327;SDS011;43162;51.040;18.244;2024-01-27T04:51:02;11.40;;;1.20;;
57327;SDS011;43162;51.040;18.244;2024-01-27T04:53:28;12.20;;;2.10;;
57327;SDS011;43162;51.040;18.244;2024-01-27T04:55:53;18.10;;;1.20;;
57327;SDS011;43162;51.040;18.244;2024-01-27T04:58:19;9.20;;;2.00;;
57327;SDS011;43162;51.040;18.244;2024-01-27T05:00:44;15.50;;;2.40;;
57327;SDS011;43162;51.040;18.244;2024-01-27T05:03:10;8.60;;;1.50;;
57327;SDS011;43162;51.040;18.244;2024-01-27T05:05:41;14.10;;;1.70;;
57327;SDS011;43162;51.040;18.244;2024-01-27T05:08:07;8.00;;;1.50;;
57327;SDS011;43162;51.040;18.244;2024-01-27T05:10:34;14.10;;;2.30;;
57327;SDS011;43162;51.040;18.244;2024-01-27T05:13:00;9.00;;;1.20;;
57327;SDS011;43162;51.040;18.244;2024-01-27T05:15:25;4.80;;;1.20;;
57327;SDS011;43162;51.040;18.244;2024-01-27T05:17:51;7.80;;;1.40;;
57327;SDS011;43162;51.040;18.244;2024-01-27T05:20:17;5.00;;;0.80;;
57327;SDS011;43162;51.040;18.244;2024-01-27T05:22:43;4.50;;;0.90;;
57327;SDS011;43162;51.040;18.244;2024-01-27T05:25:09;6.40;;;1.40;;
57327;SDS011;43162;51.040;18.244;2024-01-27T05:27:36;9.50;;;1.40;;
57327;SDS011;43162;51.040;18.244;2024-01-27T05:30:03;9.80;;;2.00;;
57327;SDS011;43162;51.040;18.244;2024-01-27T05:32:30;12.80;;;2.00;;
57327;SDS011;43162;51.040;18.244;2024-01-27T05:34:55;7.80;;;1.20;;
57327;SDS011;43162;51.040;18.244;2024-01-27T05:37:21;15.50;;;1.70;;
57327;SDS011;43162;51.040;18.244;2024-01-27T05:39:46;7.00;;;1.00;;
57327;SDS011;43162;51.040;18.244;2024-01-27T05:42:12;11.30;;;1.50;;
57327;SDS011;43162;51.040;18.244;2024-01-27T05:44:37;10.10;;;2.00;;
57327;SDS011;43162;51.040;18.244;2024-01-27T05:47:03;9.20;;;1.20;;
57327;SDS011;43162;51.040;18.244;2024-01-27T05:49:29;14.30;;;1.60;;
57327;SDS011;43162;51.040;18.244;2024-01-27T05:51:54;8.40;;;1.00;;
57327;SDS011;43162;51.040;18.244;2024-01-27T05:54:20;6.50;;;1.30;;
57327;SDS011;43162;51.040;18.244;2024-01-27T05:56:45;5.70;;;1.70;;
57327;SDS011;43162;51.040;18.244;2024-01-27T05:59:11;19.40;;;1.50;;
57327;SDS011;43162;51.040;18.244;2024-01-27T06:01:37;11.00;;;1.10;;
57327;SDS011;43162;51.040;18.244;2024-01-27T06:04:02;13.20;;;1.60;;
57327;SDS011;43162;51.040;18.244;2024-01-27T06:06:29;6.10;;;1.40;;
57327;SDS011;43162;51.040;18.244;2024-01-27T06:08:54;12.10;;;1.00;;
57327;SDS011;43162;51.040;18.244;2024-01-27T06:11:26;7.10;;;1.30;;
57327;SDS011;43162;51.040;18.244;2024-01-27T06:13:52;10.20;;;1.20;;
57327;SDS011;43162;51.040;18.244;2024-01-27T06:16:18;8.00;;;1.40;;
57327;SDS011;43162;51.040;18.244;2024-01-27T06:18:46;15.30;;;1.60;;
57327;SDS011;43162;51.040;18.244;2024-01-27T06:21:12;8.80;;;1.60;;
57327;SDS011;43162;51.040;18.244;2024-01-27T06:23:38;11.30;;;1.90;;
57327;SDS011;43162;51.040;18.244;2024-01-27T06:26:07;7.70;;;1.10;;
57327;SDS011;43162;51.040;18.244;2024-01-27T06:28:33;7.00;;;1.00;;
57327;SDS011;43162;51.040;18.244;2024-01-27T06:31:00;16.20;;;2.50;;
57327;SDS011;43162;51.040;18.244;2024-01-27T06:33:26;12.00;;;1.70;;
57327;SDS011;43162;51.040;18.244;2024-01-27T06:35:51;8.50;;;1.80;;
57327;SDS011;43162;51.040;18.244;2024-01-27T06:38:17;9.20;;;1.60;;
57327;SDS011;43162;51.040;18.244;2024-01-27T06:40:42;7.10;;;1.60;;
57327;SDS011;43162;51.040;18.244;2024-01-27T06:43:09;16.80;;;1.80;;
57327;SDS011;43162;51.040;18.244;2024-01-27T06:45:37;9.90;;;1.70;;
57327;SDS011;43162;51.040;18.244;2024-01-27T06:48:02;7.00;;;1.50;;
57327;SDS011;43162;51.040;18.244;2024-01-27T06:50:29;5.20;;;1.30;;
57327;SDS011;43162;51.040;18.244;2024-01-27T06:52:54;14.50;;;1.40;;
57327;SDS011;43162;51.040;18.244;2024-01-27T06:55:20;13.30;;;2.10;;
57327;SDS011;43162;51.040;18.244;2024-01-27T06:57:45;4.80;;;1.10;;
57327;SDS011;43162;51.040;18.244;2024-01-27T07:00:11;13.90;;;2.60;;
57327;SDS011;43162;51.040;18.244;2024-01-27T07:02:39;7.80;;;1.40;;
57327;SDS011;43162;51.040;18.244;2024-01-27T07:05:07;6.20;;;1.20;;
57327;SDS011;43162;51.040;18.244;2024-01-27T07:07:34;6.60;;;1.60;;
57327;SDS011;43162;51.040;18.244;2024-01-27T07:09:59;9.50;;;1.50;;
57327;SDS011;43162;51.040;18.244;2024-01-27T07:12:25;12.40;;;1.70;;
57327;SDS011;43162;51.040;18.244;2024-01-27T07:14:51;15.20;;;2.10;;
57327;SDS011;43162;51.040;18.244;2024-01-27T07:17:17;11.40;;;1.80;;
57327;SDS011;43162;51.040;18.244;2024-01-27T07:19:43;10.90;;;2.20;;
57327;SDS011;43162;51.040;18.244;2024-01-27T07:22:09;17.40;;;1.50;;
57327;SDS011;43162;51.040;18.244;2024-01-27T07:24:35;5.80;;;1.20;;
57327;SDS011;43162;51.040;18.244;2024-01-27T07:27:00;9.20;;;1.40;;
57327;SDS011;43162;51.040;18.244;2024-01-27T07:29:26;11.00;;;1.70;;
57327;SDS011;43162;51.040;18.244;2024-01-27T07:31:52;8.70;;;1.00;;
57327;SDS011;43162;51.040;18.244;2024-01-27T07:34:18;10.00;;;1.80;;
57327;SDS011;43162;51.040;18.244;2024-01-27T07:36:44;10.40;;;1.60;;
57327;SDS011;43162;51.040;18.244;2024-01-27T07:39:10;10.00;;;1.30;;
57327;SDS011;43162;51.040;18.244;2024-01-27T07:41:35;16.90;;;1.90;;
57327;SDS011;43162;51.040;18.244;2024-01-27T07:44:10;7.10;;;1.80;;
57327;SDS011;43162;51.040;18.244;2024-01-27T07:46:37;15.60;;;2.20;;
57327;SDS011;43162;51.040;18.244;2024-01-27T07:49:03;16.10;;;2.70;;
57327;SDS011;43162;51.040;18.244;2024-01-27T07:51:29;14.80;;;3.50;;
57327;SDS011;43162;51.040;18.244;2024-01-27T07:53:55;16.40;;;3.00;;
57327;SDS011;43162;51.040;18.244;2024-01-27T07:56:20;9.50;;;1.70;;
57327;SDS011;43162;51.040;18.244;2024-01-27T07:58:47;13.90;;;1.90;;
57327;SDS011;43162;51.040;18.244;2024-01-27T08:01:15;15.90;;;3.00;;
57327;SDS011;43162;51.040;18.244;2024-01-27T08:03:42;7.90;;;1.30;;
57327;SDS011;43162;51.040;18.244;2024-01-27T08:06:13;15.20;;;2.10;;
57327;SDS011;43162;51.040;18.244;2024-01-27T08:08:40;9.70;;;2.10;;
57327;SDS011;43162;51.040;18.244;2024-01-27T08:11:06;11.00;;;2.50;;
57327;SDS011;43162;51.040;18.244;2024-01-27T08:13:32;13.00;;;1.90;;
57327;SDS011;43162;51.040;18.244;2024-01-27T08:15:57;13.10;;;2.30;;
57327;SDS011;43162;51.040;18.244;2024-01-27T08:18:23;14.10;;;1.30;;
57327;SDS011;43162;51.040;18.244;2024-01-27T08:20:48;8.40;;;1.40;;
57327;SDS011;43162;51.040;18.244;2024-01-27T08:23:14;12.80;;;2.30;;
57327;SDS011;43162;51.040;18.244;2024-01-27T08:25:39;9.20;;;2.90;;
57327;SDS011;43162;51.040;18.244;2024-01-27T08:28:06;11.30;;;1.50;;
57327;SDS011;43162;51.040;18.244;2024-01-27T08:30:32;12.20;;;2.40;;
57327;SDS011;43162;51.040;18.244;2024-01-27T08:32:58;2.80;;;1.50;;
57327;SDS011;43162;51.040;18.244;2024-01-27T08:35:23;14.70;;;2.10;;
57327;SDS011;43162;51.040;18.244;2024-01-27T08:37:49;5.50;;;1.40;;
57327;SDS011;43162;51.040;18.244;2024-01-27T08:40:15;8.80;;;1.50;;
57327;SDS011;43162;51.040;18.244;2024-01-27T08:42:42;11.20;;;2.40;;
57327;SDS011;43162;51.040;18.244;2024-01-27T08:45:07;8.10;;;1.80;;
57327;SDS011;43162;51.040;18.244;2024-01-27T08:47:33;14.40;;;2.30;;
57327;SDS011;43162;51.040;18.244;2024-01-27T08:49:58;9.60;;;2.30;;
57327;SDS011;43162;51.040;18.244;2024-01-27T08:52:24;15.00;;;3.10;;
57327;SDS011;43162;51.040;18.244;2024-01-27T08:54:49;10.40;;;2.00;;
57327;SDS011;43162;51.040;18.244;2024-01-27T08:57:15;8.70;;;2.20;;
57327;SDS011;43162;51.040;18.244;2024-01-27T08:59:40;8.00;;;2.30;;
57327;SDS011;43162;51.040;18.244;2024-01-27T09:02:06;8.10;;;1.50;;
57327;SDS011;43162;51.040;18.244;2024-01-27T09:04:31;7.20;;;1.70;;
57327;SDS011;43162;51.040;18.244;2024-01-27T09:06:57;13.80;;;1.60;;
57327;SDS011;43162;51.040;18.244;2024-01-27T09:09:22;13.40;;;2.40;;
57327;SDS011;43162;51.040;18.244;2024-01-27T09:11:48;10.60;;;2.00;;
57327;SDS011;43162;51.040;18.244;2024-01-27T09:14:15;28.20;;;3.50;;
57327;SDS011;43162;51.040;18.244;2024-01-27T09:16:41;13.70;;;2.30;;
57327;SDS011;43162;51.040;18.244;2024-01-27T09:19:07;14.40;;;2.10;;
57327;SDS011;43162;51.040;18.244;2024-01-27T09:21:33;11.20;;;2.20;;
57327;SDS011;43162;51.040;18.244;2024-01-27T09:23:58;14.30;;;3.50;;
57327;SDS011;43162;51.040;18.244;2024-01-27T09:26:26;15.10;;;3.10;;
57327;SDS011;43162;51.040;18.244;2024-01-27T09:28:52;14.80;;;2.80;;
57327;SDS011;43162;51.040;18.244;2024-01-27T09:31:22;7.40;;;1.70;;
57327;SDS011;43162;51.040;18.244;2024-01-27T09:33:49;10.50;;;2.10;;
57327;SDS011;43162;51.040;18.244;2024-01-27T09:36:16;13.20;;;1.50;;
57327;SDS011;43162;51.040;18.244;2024-01-27T09:38:42;16.20;;;1.90;;
57327;SDS011;43162;51.040;18.244;2024-01-27T09:41:08;15.30;;;2.80;;
57327;SDS011;43162;51.040;18.244;2024-01-27T09:43:34;11.70;;;2.60;;
57327;SDS011;43162;51.040;18.244;2024-01-27T09:46:01;12.50;;;2.70;;
57327;SDS011;43162;51.040;18.244;2024-01-27T09:48:28;8.40;;;1.10;;
57327;SDS011;43162;51.040;18.244;2024-01-27T09:50:54;9.10;;;2.00;;
57327;SDS011;43162;51.040;18.244;2024-01-27T09:53:20;16.70;;;3.00;;
57327;SDS011;43162;51.040;18.244;2024-01-27T09:55:46;21.50;;;3.60;;
57327;SDS011;43162;51.040;18.244;2024-01-27T09:58:11;17.20;;;2.40;;
57327;SDS011;43162;51.040;18.244;2024-01-27T10:00:37;13.50;;;2.90;;
57327;SDS011;43162;51.040;18.244;2024-01-27T10:03:03;11.70;;;2.70;;
57327;SDS011;43162;51.040;18.244;2024-01-27T10:05:30;7.30;;;1.60;;
57327;SDS011;43162;51.040;18.244;2024-01-27T10:07:56;9.40;;;1.50;;
57327;SDS011;43162;51.040;18.244;2024-01-27T10:10:22;16.50;;;3.50;;
57327;SDS011;43162;51.040;18.244;2024-01-27T10:12:47;8.40;;;1.50;;
57327;SDS011;43162;51.040;18.244;2024-01-27T10:15:20;20.40;;;3.20;;
57327;SDS011;43162;51.040;18.244;2024-01-27T10:17:46;17.90;;;3.30;;
57327;SDS011;43162;51.040;18.244;2024-01-27T10:20:12;12.60;;;3.30;;
57327;SDS011;43162;51.040;18.244;2024-01-27T10:22:44;5.70;;;1.50;;
57327;SDS011;43162;51.040;18.244;2024-01-27T10:25:11;7.50;;;1.40;;
57327;SDS011;43162;51.040;18.244;2024-01-27T10:27:37;5.00;;;1.00;;
57327;SDS011;43162;51.040;18.244;2024-01-27T10:30:03;15.80;;;2.00;;
57327;SDS011;43162;51.040;18.244;2024-01-27T10:32:29;11.20;;;2.10;;
57327;SDS011;43162;51.040;18.244;2024-01-27T10:35:02;16.70;;;2.70;;
57327;SDS011;43162;51.040;18.244;2024-01-27T10:37:28;14.00;;;2.60;;
57327;SDS011;43162;51.040;18.244;2024-01-27T10:40:04;20.10;;;4.10;;
57327;SDS011;43162;51.040;18.244;2024-01-27T10:42:32;17.00;;;4.10;;
57327;SDS011;43162;51.040;18.244;2024-01-27T10:44:59;11.10;;;2.40;;
57327;SDS011;43162;51.040;18.244;2024-01-27T10:47:26;15.80;;;3.50;;
57327;SDS011;43162;51.040;18.244;2024-01-27T10:49:54;21.70;;;3.70;;
57327;SDS011;43162;51.040;18.244;2024-01-27T10:52:21;16.20;;;1.90;;
57327;SDS011;43162;51.040;18.244;2024-01-27T10:54:49;17.70;;;3.30;;
57327;SDS011;43162;51.040;18.244;2024-01-27T10:57:16;11.60;;;1.80;;
57327;SDS011;43162;51.040;18.244;2024-01-27T10:59:43;19.50;;;3.50;;
57327;SDS011;43162;51.040;18.244;2024-01-27T11:02:09;19.70;;;3.70;;
57327;SDS011;43162;51.040;18.244;2024-01-27T11:04:37;19.40;;;3.30;;
57327;SDS011;43162;51.040;18.244;2024-01-27T11:07:04;8.30;;;2.60;;
57327;SDS011;43162;51.040;18.244;2024-01-27T11:09:31;14.30;;;1.90;;
57327;SDS011;43162;51.040;18.244;2024-01-27T11:11:58;13.50;;;2.20;;
57327;SDS011;43162;51.040;18.244;2024-01-27T11:14:24;12.50;;;2.80;;
57327;SDS011;43162;51.040;18.244;2024-01-27T11:16:54;15.40;;;2.30;;
57327;SDS011;43162;51.040;18.244;2024-01-27T11:19:21;18.90;;;3.00;;
57327;SDS011;43162;51.040;18.244;2024-01-27T11:21:47;15.80;;;3.40;;
57327;SDS011;43162;51.040;18.244;2024-01-27T11:24:14;11.20;;;2.70;;
57327;SDS011;43162;51.040;18.244;2024-01-27T11:26:40;16.90;;;3.20;;
57327;SDS011;43162;51.040;18.244;2024-01-27T11:29:06;23.10;;;3.40;;
57327;SDS011;43162;51.040;18.244;2024-01-27T11:31:34;15.70;;;3.20;;
57327;SDS011;43162;51.040;18.244;2024-01-27T11:33:59;10.60;;;2.50;;
57327;SDS011;43162;51.040;18.244;2024-01-27T11:36:25;22.10;;;3.60;;
57327;SDS011;43162;51.040;18.244;2024-01-27T11:38:52;15.70;;;3.10;;
57327;SDS011;43162;51.040;18.244;2024-01-27T11:41:25;12.90;;;2.70;;
57327;SDS011;43162;51.040;18.244;2024-01-27T11:43:54;9.50;;;2.20;;
57327;SDS011;43162;51.040;18.244;2024-01-27T11:46:21;12.50;;;2.70;;
57327;SDS011;43162;51.040;18.244;2024-01-27T11:48:46;18.00;;;2.90;;
57327;SDS011;43162;51.040;18.244;2024-01-27T11:51:12;18.70;;;3.10;;
57327;SDS011;43162;51.040;18.244;2024-01-27T11:53:38;18.90;;;3.00;;
57327;SDS011;43162;51.040;18.244;2024-01-27T11:56:04;13.30;;;2.80;;
57327;SDS011;43162;51.040;18.244;2024-01-27T11:58:30;22.00;;;3.60;;
57327;SDS011;43162;51.040;18.244;2024-01-27T12:00:56;26.80;;;4.30;;
57327;SDS011;43162;51.040;18.244;2024-01-27T12:03:23;12.90;;;3.20;;
57327;SDS011;43162;51.040;18.244;2024-01-27T12:05:49;21.70;;;3.00;;
57327;SDS011;43162;51.040;18.244;2024-01-27T12:08:16;12.50;;;2.60;;
57327;SDS011;43162;51.040;18.244;2024-01-27T12:10:42;19.50;;;3.10;;
57327;SDS011;43162;51.040;18.244;2024-01-27T12:13:08;10.30;;;2.20;;
57327;SDS011;43162;51.040;18.244;2024-01-27T12:15:33;13.90;;;2.80;;
57327;SDS011;43162;51.040;18.244;2024-01-27T12:17:59;14.60;;;3.30;;
57327;SDS011;43162;51.040;18.244;2024-01-27T12:20:25;22.30;;;4.40;;
57327;SDS011;43162;51.040;18.244;2024-01-27T12:23:01;15.20;;;3.40;;
57327;SDS011;43162;51.040;18.244;2024-01-27T12:25:35;18.60;;;3.60;;
57327;SDS011;43162;51.040;18.244;2024-01-27T12:28:05;13.40;;;3.30;;
57327;SDS011;43162;51.040;18.244;2024-01-27T12:30:33;12.00;;;3.20;;
57327;SDS011;43162;51.040;18.244;2024-01-27T12:32:59;17.70;;;3.20;;
57327;SDS011;43162;51.040;18.244;2024-01-27T12:35:26;14.00;;;3.00;;
57327;SDS011;43162;51.040;18.244;2024-01-27T12:37:52;16.10;;;3.50;;
57327;SDS011;43162;51.040;18.244;2024-01-27T12:40:22;13.60;;;3.00;;
57327;SDS011;43162;51.040;18.244;2024-01-27T12:42:48;23.80;;;4.10;;
57327;SDS011;43162;51.040;18.244;2024-01-27T12:45:14;15.50;;;3.80;;
57327;SDS011;43162;51.040;18.244;2024-01-27T12:47:39;15.90;;;3.40;;
57327;SDS011;43162;51.040;18.244;2024-01-27T12:50:05;9.50;;;2.40;;
57327;SDS011;43162;51.040;18.244;2024-01-27T12:52:32;17.10;;;3.10;;
57327;SDS011;43162;51.040;18.244;2024-01-27T12:54:58;16.40;;;3.30;;
57327;SDS011;43162;51.040;18.244;2024-01-27T12:57:23;21.10;;;3.60;;
57327;SDS011;43162;51.040;18.244;2024-01-27T12:59:49;26.90;;;3.50;;
57327;SDS011;43162;51.040;18.244;2024-01-27T13:02:15;11.80;;;2.20;;
57327;SDS011;43162;51.040;18.244;2024-01-27T13:04:41;18.90;;;3.40;;
57327;SDS011;43162;51.040;18.244;2024-01-27T13:07:07;13.00;;;2.50;;
57327;SDS011;43162;51.040;18.244;2024-01-27T13:09:33;15.80;;;2.70;;
57327;SDS011;43162;51.040;18.244;2024-01-27T13:11:59;7.30;;;2.80;;
57327;SDS011;43162;51.040;18.244;2024-01-27T13:14:24;15.70;;;2.20;;
57327;SDS011;43162;51.040;18.244;2024-01-27T13:16:50;11.30;;;3.60;;
57327;SDS011;43162;51.040;18.244;2024-01-27T13:19:19;17.30;;;3.20;;
57327;SDS011;43162;51.040;18.244;2024-01-27T13:21:44;12.50;;;2.10;;
57327;SDS011;43162;51.040;18.244;2024-01-27T13:24:10;8.00;;;2.10;;
57327;SDS011;43162;51.040;18.244;2024-01-27T13:26:36;13.00;;;2.60;;
57327;SDS011;43162;51.040;18.244;2024-01-27T13:29:03;20.10;;;2.80;;
57327;SDS011;43162;51.040;18.244;2024-01-27T13:31:30;17.30;;;3.80;;
57327;SDS011;43162;51.040;18.244;2024-01-27T13:33:56;15.40;;;4.10;;
57327;SDS011;43162;51.040;18.244;2024-01-27T13:36:23;16.40;;;4.20;;
57327;SDS011;43162;51.040;18.244;2024-01-27T13:38:49;9.20;;;2.80;;
57327;SDS011;43162;51.040;18.244;2024-01-27T13:41:14;18.70;;;3.80;;
57327;SDS011;43162;51.040;18.244;2024-01-27T13:43:41;7.70;;;2.30;;
57327;SDS011;43162;51.040;18.244;2024-01-27T13:46:06;12.10;;;2.80;;
57327;SDS011;43162;51.040;18.244;2024-01-27T13:48:32;10.90;;;2.80;;
57327;SDS011;43162;51.040;18.244;2024-01-27T13:50:58;15.80;;;3.20;;
57327;SDS011;43162;51.040;18.244;2024-01-27T13:53:24;11.60;;;3.10;;
57327;SDS011;43162;51.040;18.244;2024-01-27T13:55:49;14.10;;;2.70;;
57327;SDS011;43162;51.040;18.244;2024-01-27T13:58:15;12.30;;;3.10;;
57327;SDS011;43162;51.040;18.244;2024-01-27T14:00:42;10.40;;;2.90;;
57327;SDS011;43162;51.040;18.244;2024-01-27T14:03:07;10.50;;;2.60;;
57327;SDS011;43162;51.040;18.244;2024-01-27T14:05:34;16.70;;;4.00;;
57327;SDS011;43162;51.040;18.244;2024-01-27T14:07:59;13.80;;;4.20;;
57327;SDS011;43162;51.040;18.244;2024-01-27T14:10:25;9.60;;;3.00;;
57327;SDS011;43162;51.040;18.244;2024-01-27T14:12:51;9.10;;;2.80;;
57327;SDS011;43162;51.040;18.244;2024-01-27T14:15:17;11.80;;;2.80;;
57327;SDS011;43162;51.040;18.244;2024-01-27T14:17:43;9.90;;;2.90;;
57327;SDS011;43162;51.040;18.244;2024-01-27T14:20:09;15.70;;;3.80;;